Time;durP1;ratioP1;P1;durP2;ratioP2;P2;SDS_P1;SDS_P2;PMS_P1;PMS_P2;Temp;Humidity;BMP_temperature;BMP_pressure;BME280_temperature;BME280_humidity;BME280_pressure;Samples;Min_cycle;Max_cycle;Signal;HPM_P1;HPM_P2
2023/05/04 00:00:39;;;;;;;5.07;3.57;;;8.50;99.90;;;;;;5030432;28;20199;-78
2023/05/04 00:03:04;;;;;;;3.00;2.70;;;8.60;99.90;;;;;;5028844;28;20632;-76
2023/05/04 00:05:30;;;;;;;7.13;3.13;;;8.40;99.90;;;;;;5024393;28;20248;-78
2023/05/04 00:07:56;;;;;;;4.57;3.27;;;8.40;99.90;;;;;;5036035;28;20206;-76
2023/05/04 00:10:21;;;;;;;5.70;3.50;;;8.50;99.90;;;;;;5034482;28;20218;-81
2023/05/04 00:12:47;;;;;;;9.60;3.10;;;8.50;99.90;;;;;;5024618;28;20540;-79
2023/05/04 00:15:12;;;;;;;4.30;3.20;;;8.30;99.90;;;;;;5035956;28;20537;-84
2023/05/04 00:17:38;;;;;;;6.83;4.00;;;8.30;99.90;;;;;;5027179;28;20208;-79
2023/05/04 00:20:04;;;;;;;5.77;3.07;;;8.20;99.90;;;;;;5038386;28;20226;-84
2023/05/04 00:22:30;;;;;;;6.47;4.33;;;8.10;99.90;;;;;;5037531;28;20192;-81
2023/05/04 00:24:55;;;;;;;7.00;3.07;;;8.00;99.90;;;;;;5025786;28;20609;-80
2023/05/04 00:27:21;;;;;;;6.73;3.70;;;7.90;99.90;;;;;;5023936;28;20208;-67
2023/05/04 00:29:46;;;;;;;6.73;3.20;;;8.00;99.90;;;;;;5024697;28;20232;-67
2023/05/04 00:32:12;;;;;;;4.27;3.27;;;8.10;99.90;;;;;;5025228;28;20235;-66
2023/05/04 00:34:37;;;;;;;4.67;3.40;;;8.00;99.90;;;;;;5022624;28;20206;-68
2023/05/04 00:37:03;;;;;;;10.30;3.97;;;7.90;99.90;;;;;;5024523;28;20594;-71
2023/05/04 00:39:29;;;;;;;2.93;2.67;;;8.00;99.90;;;;;;5022211;28;20219;-77
2023/05/04 00:41:55;;;;;;;7.60;3.00;;;8.20;99.90;;;;;;5025190;28;20211;-67
2023/05/04 00:44:22;;;;;;;6.27;3.90;;;8.20;99.90;;;;;;5026113;28;20183;-67
2023/05/04 00:46:48;;;;;;;6.43;3.80;;;8.00;99.90;;;;;;5026402;28;20202;-67
2023/05/04 00:49:14;;;;;;;7.97;3.67;;;8.00;99.90;;;;;;5023325;28;20981;-66
2023/05/04 00:51:40;;;;;;;11.03;3.93;;;7.90;99.90;;;;;;5025358;28;20297;-67
2023/05/04 00:54:05;;;;;;;9.80;5.00;;;7.90;99.90;;;;;;5027259;28;20196;-66
2023/05/04 00:56:32;;;;;;;5.50;3.83;;;8.00;99.90;;;;;;5024344;28;20233;-66
2023/05/04 00:58:58;;;;;;;3.43;3.10;;;7.90;99.90;;;;;;5025100;28;20617;-67
2023/05/04 01:01:24;;;;;;;5.90;3.50;;;7.90;99.90;;;;;;5023312;28;20196;-66
2023/05/04 01:03:52;;;;;;;7.00;2.67;;;8.00;99.90;;;;;;5025216;28;20197;-66
2023/05/04 01:06:31;;;;;;;7.97;3.53;;;8.10;99.90;;;;;;5024135;28;20265;-66
2023/05/04 01:09:18;;;;;;;4.53;3.43;;;8.20;99.90;;;;;;5021563;28;20230;-66
2023/05/04 01:11:53;;;;;;;14.70;4.13;;;8.10;99.90;;;;;;5035475;28;20702;-66
2023/05/04 01:14:20;;;;;;;5.60;3.57;;;8.20;99.90;;;;;;5035370;28;20669;-67
2023/05/04 01:16:46;;;;;;;4.33;3.30;;;8.30;99.90;;;;;;5027861;28;20200;-66
2023/05/04 01:19:12;;;;;;;7.57;3.40;;;8.40;99.90;;;;;;5033494;28;20650;-67
2023/05/04 01:21:38;;;;;;;8.20;3.30;;;8.30;99.90;;;;;;5034861;28;20272;-66
2023/05/04 01:24:05;;;;;;;3.83;3.37;;;8.30;99.90;;;;;;5033403;28;20203;-66
2023/05/04 01:26:36;;;;;;;4.30;2.60;;;8.50;99.90;;;;;;5035389;28;20208;-66
2023/05/04 01:29:13;;;;;;;6.80;3.50;;;8.20;99.90;;;;;;5034996;28;20702;-66
2023/05/04 01:31:39;;;;;;;4.73;3.13;;;8.10;99.90;;;;;;5030049;28;20253;-66
2023/05/04 01:34:07;;;;;;;3.47;3.07;;;7.90;99.90;;;;;;5024694;28;20211;-67
2023/05/04 01:36:33;;;;;;;7.83;3.47;;;8.30;99.90;;;;;;5022383;28;20205;-66
2023/05/04 01:38:59;;;;;;;14.27;3.93;;;8.50;99.90;;;;;;5025304;28;20222;-67
2023/05/04 01:41:25;;;;;;;8.40;3.47;;;8.60;99.90;;;;;;5026039;28;20195;-66
2023/05/04 01:43:52;;;;;;;5.70;3.20;;;8.40;99.90;;;;;;5025926;28;20203;-66
2023/05/04 01:46:18;;;;;;;9.20;4.27;;;8.40;99.90;;;;;;5028465;28;20208;-66
2023/05/04 01:48:44;;;;;;;7.23;3.43;;;8.20;99.90;;;;;;5028753;28;20219;-65
2023/05/04 01:51:09;;;;;;;10.27;4.20;;;7.90;99.90;;;;;;5030322;28;21116;-66
2023/05/04 01:53:34;;;;;;;7.10;3.67;;;7.70;99.90;;;;;;5025385;28;20218;-66
2023/05/04 01:56:00;;;;;;;10.73;3.60;;;7.60;99.90;;;;;;5026853;28;20225;-66
2023/05/04 01:58:25;;;;;;;5.50;3.63;;;7.60;99.90;;;;;;5030277;28;20221;-67
2023/05/04 02:00:51;;;;;;;5.97;3.90;;;7.60;99.90;;;;;;5025022;28;20199;-67
2023/05/04 02:03:16;;;;;;;7.13;4.07;;;7.60;99.90;;;;;;5028789;28;20187;-66
2023/05/04 02:05:42;;;;;;;8.10;3.57;;;7.60;99.90;;;;;;5029312;28;20202;-65
2023/05/04 02:08:07;;;;;;;6.80;3.93;;;7.60;99.90;;;;;;5030073;28;20515;-66
2023/05/04 02:10:33;;;;;;;7.83;3.43;;;7.60;99.90;;;;;;5025776;28;20203;-66
2023/05/04 02:12:59;;;;;;;10.10;4.63;;;7.70;99.90;;;;;;5028084;28;20660;-67
2023/05/04 02:15:25;;;;;;;5.63;3.87;;;7.80;99.90;;;;;;5028544;28;20221;-66
2023/05/04 02:17:50;;;;;;;8.90;3.40;;;7.80;99.90;;;;;;5028233;28;20298;-67
2023/05/04 02:20:16;;;;;;;7.60;4.00;;;7.90;99.90;;;;;;5026981;28;20503;-67
2023/05/04 02:22:41;;;;;;;11.57;4.57;;;7.80;99.90;;;;;;5028009;28;20245;-67
2023/05/04 02:25:07;;;;;;;4.00;3.23;;;7.80;99.90;;;;;;5026643;28;20495;-67
2023/05/04 02:27:33;;;;;;;7.27;3.00;;;7.80;99.90;;;;;;5027881;28;20209;-67
2023/05/04 02:29:58;;;;;;;6.97;3.37;;;7.80;99.90;;;;;;5028240;28;20232;-67
2023/05/04 02:32:25;;;;;;;6.27;3.63;;;7.90;99.90;;;;;;5028790;28;20645;-68
2023/05/04 02:34:51;;;;;;;6.60;3.00;;;7.90;99.90;;;;;;5036027;28;20199;-68
2023/05/04 02:37:17;;;;;;;6.53;3.03;;;7.80;99.90;;;;;;5036120;28;20247;-68
2023/05/04 02:39:42;;;;;;;6.20;3.70;;;7.70;99.90;;;;;;5035744;28;20226;-68
2023/05/04 02:42:08;;;;;;;7.53;4.37;;;7.70;99.90;;;;;;5030022;28;20289;-68
2023/05/04 02:44:33;;;;;;;8.53;4.07;;;7.70;99.90;;;;;;5029985;28;20935;-68
2023/05/04 02:46:59;;;;;;;8.13;5.50;;;7.70;99.90;;;;;;5025535;28;20243;-68
2023/05/04 02:49:25;;;;;;;10.90;6.53;;;7.60;99.90;;;;;;5026451;28;20204;-67
2023/05/04 02:51:50;;;;;;;14.27;5.57;;;7.60;99.90;;;;;;5027493;28;20234;-68
2023/05/04 02:54:16;;;;;;;7.47;5.07;;;7.40;99.90;;;;;;5028111;28;20670;-68
2023/05/04 02:56:41;;;;;;;10.40;5.63;;;7.30;99.90;;;;;;5028328;28;20280;-68
2023/05/04 02:59:07;;;;;;;8.43;4.47;;;7.50;99.90;;;;;;5029090;28;20286;-68
2023/05/04 03:01:32;;;;;;;7.47;4.30;;;7.40;99.90;;;;;;5026624;28;20207;-67
2023/05/04 03:03:58;;;;;;;6.97;4.57;;;7.30;99.90;;;;;;5025775;28;20203;-67
2023/05/04 03:06:23;;;;;;;9.53;3.83;;;7.40;99.90;;;;;;5037480;28;20249;-68
2023/05/04 03:08:49;;;;;;;8.33;3.33;;;7.20;99.90;;;;;;5037131;28;20202;-67
2023/05/04 03:11:15;;;;;;;6.37;3.07;;;7.20;99.90;;;;;;5037572;28;20520;-67
2023/05/04 03:13:40;;;;;;;7.83;3.80;;;7.10;99.90;;;;;;5037312;28;20230;-67
2023/05/04 03:16:06;;;;;;;6.50;3.77;;;6.90;99.90;;;;;;5036951;28;20537;-67
2023/05/04 03:18:32;;;;;;;7.70;3.43;;;6.90;99.90;;;;;;5034974;28;20246;-67
2023/05/04 03:20:57;;;;;;;6.20;3.50;;;6.90;99.90;;;;;;5036662;28;20210;-67
2023/05/04 03:23:23;;;;;;;8.73;4.17;;;7.00;99.90;;;;;;5037001;28;20190;-67
2023/05/04 03:25:49;;;;;;;6.17;3.43;;;7.10;99.90;;;;;;5036962;28;20210;-67
2023/05/04 03:28:14;;;;;;;8.33;3.67;;;7.20;99.90;;;;;;5037125;28;20731;-68
2023/05/04 03:30:40;;;;;;;9.97;3.97;;;7.30;99.90;;;;;;5036936;28;20241;-69
2023/05/04 03:33:06;;;;;;;7.33;3.60;;;7.30;99.90;;;;;;5026712;28;20212;-69
2023/05/04 03:35:31;;;;;;;10.33;3.53;;;7.30;99.90;;;;;;5033467;28;20591;-67
2023/05/04 03:37:57;;;;;;;5.47;3.10;;;7.20;99.90;;;;;;5028442;28;20563;-66
2023/05/04 03:40:23;;;;;;;7.00;4.20;;;7.30;99.90;;;;;;5036730;28;20268;-70
2023/05/04 03:42:50;;;;;;;3.93;2.60;;;7.40;99.90;;;;;;5036957;28;20195;-66
2023/05/04 03:45:16;;;;;;;6.60;3.93;;;7.50;99.90;;;;;;5033723;28;20219;-66
2023/05/04 03:47:41;;;;;;;4.07;2.83;;;7.50;99.90;;;;;;5034698;28;21001;-66
2023/05/04 03:50:08;;;;;;;7.80;3.57;;;7.50;99.90;;;;;;5019512;28;20285;-68
2023/05/04 03:52:34;;;;;;;8.00;3.47;;;7.50;99.90;;;;;;5035183;28;20221;-68
2023/05/04 03:54:59;;;;;;;8.47;3.00;;;7.50;99.90;;;;;;5036818;28;20240;-67
2023/05/04 03:57:25;;;;;;;12.17;6.03;;;7.60;99.90;;;;;;5034928;28;20222;-67
2023/05/04 03:59:50;;;;;;;11.20;3.93;;;7.70;99.90;;;;;;5025897;28;20204;-67
2023/05/04 04:02:16;;;;;;;3.83;2.80;;;7.50;99.90;;;;;;5036728;28;20204;-67
2023/05/04 04:04:41;;;;;;;7.83;3.00;;;7.50;99.90;;;;;;5036250;28;20688;-67
2023/05/04 04:07:07;;;;;;;7.60;2.83;;;7.70;99.90;;;;;;5036684;28;20195;-67
2023/05/04 04:09:33;;;;;;;12.63;4.07;;;7.70;99.90;;;;;;5034974;28;20235;-66
2023/05/04 04:11:58;;;;;;;4.57;2.77;;;7.70;99.90;;;;;;5036845;28;20364;-67
2023/05/04 04:14:23;;;;;;;10.50;3.23;;;7.70;99.90;;;;;;5036375;28;20231;-67
2023/05/04 04:16:49;;;;;;;6.07;3.73;;;7.70;99.90;;;;;;5036304;28;20199;-67
2023/05/04 04:19:14;;;;;;;5.97;3.23;;;7.70;99.90;;;;;;5027125;28;20268;-67
2023/05/04 04:21:40;;;;;;;7.97;4.10;;;7.70;99.90;;;;;;5026703;28;20203;-66
2023/05/04 04:24:06;;;;;;;8.00;3.33;;;7.60;99.90;;;;;;5033806;28;20715;-66
2023/05/04 04:26:32;;;;;;;6.87;3.87;;;7.70;99.90;;;;;;5026642;28;20688;-67
2023/05/04 04:28:57;;;;;;;9.57;3.80;;;7.80;99.90;;;;;;5035801;28;20219;-66
2023/05/04 04:31:23;;;;;;;5.90;3.70;;;7.90;99.90;;;;;;5036032;28;20252;-66
2023/05/04 04:33:50;;;;;;;6.63;4.03;;;8.00;99.90;;;;;;5036138;28;20273;-67
2023/05/04 04:36:17;;;;;;;8.27;3.37;;;8.00;99.90;;;;;;5036177;28;20203;-65
2023/05/04 04:38:43;;;;;;;9.10;3.40;;;8.00;99.90;;;;;;5035953;28;20296;-67
2023/05/04 04:41:09;;;;;;;6.27;3.60;;;8.20;99.90;;;;;;5029485;28;20200;-65
2023/05/04 04:43:34;;;;;;;6.13;3.23;;;8.20;99.90;;;;;;5033327;28;20196;-66
2023/05/04 04:46:01;;;;;;;7.10;3.70;;;8.30;99.90;;;;;;5036164;28;20257;-67
2023/05/04 04:48:26;;;;;;;7.60;3.37;;;8.40;99.90;;;;;;5027486;28;20204;-67
2023/05/04 04:50:52;;;;;;;7.27;3.90;;;8.50;99.90;;;;;;5033655;28;20214;-68
2023/05/04 04:53:18;;;;;;;8.63;3.70;;;8.50;99.90;;;;;;5034371;28;20207;-67
2023/05/04 04:55:44;;;;;;;8.33;3.80;;;8.80;99.90;;;;;;5025443;28;20571;-67
2023/05/04 04:58:09;;;;;;;12.93;4.30;;;9.00;99.90;;;;;;5020013;28;20237;-65
2023/05/04 05:00:35;;;;;;;7.73;3.23;;;9.20;99.90;;;;;;5027833;28;20635;-66
2023/05/04 05:03:02;;;;;;;7.37;3.57;;;9.20;99.90;;;;;;5021378;28;20792;-68
2023/05/04 05:05:28;;;;;;;4.80;3.60;;;9.40;99.90;;;;;;5017553;28;20290;-66
2023/05/04 05:07:53;;;;;;;4.50;3.00;;;9.70;99.90;;;;;;5026690;28;20304;-67
2023/05/04 05:10:20;;;;;;;4.13;3.20;;;9.70;99.90;;;;;;5026215;28;20536;-67
2023/05/04 05:12:45;;;;;;;8.70;3.83;;;9.80;99.90;;;;;;5026758;28;20217;-67
2023/05/04 05:15:11;;;;;;;8.03;3.90;;;9.80;99.90;;;;;;5026902;28;20207;-67
2023/05/04 05:17:38;;;;;;;4.30;3.20;;;9.90;99.90;;;;;;5026770;28;20270;-66
2023/05/04 05:20:10;;;;;;;4.77;3.37;;;10.00;99.90;;;;;;5029409;28;20204;-66
2023/05/04 05:22:39;;;;;;;5.67;3.33;;;10.10;99.90;;;;;;5029146;28;20283;-65
2023/05/04 05:25:06;;;;;;;5.60;3.60;;;10.10;99.90;;;;;;5001108;28;20844;-66
2023/05/04 05:27:33;;;;;;;5.20;3.77;;;9.90;99.90;;;;;;5031374;28;20249;-64
2023/05/04 05:30:00;;;;;;;7.60;3.93;;;10.00;99.90;;;;;;5029071;28;20770;-67
2023/05/04 05:32:25;;;;;;;4.83;3.30;;;10.10;99.90;;;;;;5029878;28;20224;-65
2023/05/04 05:34:51;;;;;;;7.90;3.50;;;10.10;99.90;;;;;;5023372;28;20204;-66
2023/05/04 05:37:16;;;;;;;7.50;4.60;;;10.10;99.90;;;;;;5019274;28;20220;-65
2023/05/04 05:39:42;;;;;;;6.20;3.50;;;10.20;99.90;;;;;;5022523;28;20202;-64
2023/05/04 05:42:07;;;;;;;7.00;3.13;;;10.30;99.90;;;;;;5029395;28;20210;-65
2023/05/04 05:44:38;;;;;;;6.07;3.40;;;10.20;99.90;;;;;;5029695;28;20203;-66
2023/05/04 05:47:04;;;;;;;7.87;3.77;;;10.30;99.90;;;;;;5025449;28;20192;-66
2023/05/04 05:49:30;;;;;;;3.40;3.10;;;10.30;99.90;;;;;;5018027;28;20340;-66
2023/05/04 05:51:57;;;;;;;7.40;3.53;;;10.50;99.90;;;;;;5029999;28;20218;-65
2023/05/04 05:54:22;;;;;;;6.97;2.80;;;10.50;99.90;;;;;;5029757;28;20744;-67
2023/05/04 05:56:48;;;;;;;5.77;3.90;;;10.70;99.90;;;;;;5029148;28;20245;-66
2023/05/04 05:59:14;;;;;;;4.00;3.17;;;10.80;99.90;;;;;;5037832;28;20222;-66
2023/05/04 06:01:40;;;;;;;4.27;3.50;;;10.80;99.90;;;;;;5028720;28;20585;-66
2023/05/04 06:04:06;;;;;;;7.13;3.40;;;10.80;99.90;;;;;;5024734;28;20258;-65
2023/05/04 06:06:31;;;;;;;11.37;4.43;;;10.90;99.80;;;;;;5038914;28;20204;-65
2023/05/04 06:08:57;;;;;;;5.60;3.67;;;10.90;99.90;;;;;;5039097;28;20562;-66
2023/05/04 06:11:22;;;;;;;6.70;3.83;;;11.00;99.80;;;;;;5034840;28;20210;-65
2023/05/04 06:13:48;;;;;;;5.43;3.80;;;10.90;99.40;;;;;;5031656;28;20212;-67
2023/05/04 06:16:13;;;;;;;7.37;4.07;;;11.00;99.30;;;;;;5029746;28;20229;-67
2023/05/04 06:18:39;;;;;;;7.60;4.67;;;10.80;99.70;;;;;;5030232;28;20684;-67
2023/05/04 06:21:04;;;;;;;5.07;3.70;;;11.00;99.50;;;;;;5030782;28;21191;-67
2023/05/04 06:23:30;;;;;;;5.73;3.90;;;11.20;99.30;;;;;;5027366;28;20192;-68
2023/05/04 06:25:56;;;;;;;8.53;3.77;;;11.20;99.20;;;;;;5029187;28;20190;-67
2023/05/04 06:28:21;;;;;;;8.27;4.23;;;11.30;99.20;;;;;;5027371;28;20328;-68
2023/05/04 06:30:47;;;;;;;8.17;4.43;;;11.20;99.20;;;;;;5023530;28;20576;-67
2023/05/04 06:33:13;;;;;;;12.83;3.73;;;11.50;98.30;;;;;;5027770;28;20218;-67
2023/05/04 06:35:38;;;;;;;7.80;4.53;;;11.70;97.90;;;;;;5031419;28;20211;-67
2023/05/04 06:38:04;;;;;;;6.60;3.90;;;11.80;98.10;;;;;;5024509;28;20634;-66
2023/05/04 06:40:30;;;;;;;7.07;4.17;;;11.90;97.50;;;;;;5028340;28;20204;-67
2023/05/04 06:42:55;;;;;;;6.50;4.23;;;11.90;97.40;;;;;;5028129;28;20211;-67
2023/05/04 06:45:21;;;;;;;7.17;4.00;;;12.00;96.70;;;;;;5028846;28;20216;-67
2023/05/04 06:47:46;;;;;;;9.03;4.43;;;11.90;96.90;;;;;;5028641;28;20206;-67
2023/05/04 06:50:13;;;;;;;9.37;3.87;;;11.90;96.80;;;;;;5028971;28;20216;-67
2023/05/04 06:52:39;;;;;;;8.10;4.30;;;12.20;96.80;;;;;;5028437;28;20682;-68
2023/05/04 06:55:06;;;;;;;8.47;3.90;;;12.40;96.30;;;;;;5023412;28;20200;-67
2023/05/04 06:57:32;;;;;;;5.13;4.00;;;12.50;96.20;;;;;;5029204;28;20728;-68
2023/05/04 06:59:57;;;;;;;7.07;3.73;;;12.50;95.90;;;;;;5028776;28;20203;-66
2023/05/04 07:02:23;;;;;;;6.80;3.90;;;12.50;95.50;;;;;;5025188;28;20671;-66
2023/05/04 07:04:49;;;;;;;7.53;4.30;;;12.60;96.00;;;;;;5037028;28;20792;-67
2023/05/04 07:07:14;;;;;;;8.70;4.03;;;12.40;95.40;;;;;;5036104;28;20952;-66
2023/05/04 07:09:42;;;;;;;5.00;3.73;;;12.40;95.50;;;;;;5021049;28;20658;-67
2023/05/04 07:12:07;;;;;;;5.07;3.50;;;12.60;95.20;;;;;;5031407;28;20657;-67
2023/05/04 07:14:33;;;;;;;11.80;4.20;;;12.70;94.90;;;;;;5038051;28;20206;-67
2023/05/04 07:17:00;;;;;;;8.77;4.00;;;12.70;95.10;;;;;;5028453;28;20195;-67
2023/05/04 07:19:25;;;;;;;7.80;4.17;;;13.00;95.00;;;;;;5035551;28;20208;-67
2023/05/04 07:21:51;;;;;;;8.30;4.73;;;13.10;93.90;;;;;;5029220;28;20576;-67
2023/05/04 07:24:16;;;;;;;7.13;3.60;;;13.10;93.80;;;;;;5037285;28;20198;-67
2023/05/04 07:26:42;;;;;;;7.77;3.60;;;13.10;93.90;;;;;;5022591;28;20221;-66
2023/05/04 07:29:08;;;;;;;4.40;3.43;;;13.20;93.80;;;;;;5032028;28;20221;-67
2023/05/04 07:31:34;;;;;;;6.50;3.70;;;13.20;93.30;;;;;;5027804;28;20241;-68
2023/05/04 07:33:59;;;;;;;5.23;3.80;;;13.30;93.10;;;;;;5030640;28;20231;-68
2023/05/04 07:36:26;;;;;;;8.70;3.80;;;13.50;92.90;;;;;;5027280;28;20203;-67
2023/05/04 07:38:52;;;;;;;4.83;3.47;;;13.70;92.30;;;;;;5034073;28;20227;-68
2023/05/04 07:41:17;;;;;;;7.43;3.60;;;13.70;92.20;;;;;;5036547;28;20221;-68
2023/05/04 07:43:43;;;;;;;7.80;3.27;;;13.80;91.90;;;;;;5028263;28;20199;-67
2023/05/04 07:46:08;;;;;;;7.27;3.20;;;13.90;91.60;;;;;;5033445;28;20202;-67
2023/05/04 07:48:34;;;;;;;5.37;4.13;;;13.90;91.00;;;;;;5028735;28;20815;-67
2023/05/04 07:50:59;;;;;;;9.20;3.93;;;13.90;91.20;;;;;;5037576;28;20198;-67
2023/05/04 07:53:25;;;;;;;8.07;3.70;;;14.00;91.40;;;;;;5037042;28;20651;-67
2023/05/04 07:55:53;;;;;;;7.73;4.00;;;14.10;91.30;;;;;;5036938;28;20203;-67
2023/05/04 07:58:18;;;;;;;5.83;3.00;;;14.20;90.60;;;;;;5030046;28;20624;-67
2023/05/04 08:00:44;;;;;;;5.00;3.23;;;14.30;90.00;;;;;;5028859;28;20203;-67
2023/05/04 08:03:10;;;;;;;7.47;3.50;;;14.50;88.80;;;;;;5033600;28;20207;-71
2023/05/04 08:05:35;;;;;;;5.13;2.83;;;14.60;88.60;;;;;;5028655;28;20196;-67
2023/05/04 08:08:01;;;;;;;6.70;3.37;;;14.70;85.80;;;;;;5034595;28;20572;-78
2023/05/04 08:10:27;;;;;;;4.53;3.33;;;14.60;86.70;;;;;;5036398;28;20673;-82
2023/05/04 08:12:53;;;;;;;8.27;3.53;;;14.60;86.00;;;;;;5021239;28;20207;-83
2023/05/04 08:15:19;;;;;;;4.23;3.10;;;14.40;86.60;;;;;;5034892;28;20203;-83
2023/05/04 08:17:44;;;;;;;10.30;3.83;;;14.60;87.20;;;;;;5037643;28;20795;-72
2023/05/04 08:20:11;;;;;;;7.73;3.27;;;14.80;87.70;;;;;;5036107;28;20222;-72
2023/05/04 08:22:37;;;;;;;8.43;3.60;;;15.00;86.20;;;;;;5034994;28;20195;-69
2023/05/04 08:25:03;;;;;;;6.37;3.10;;;15.10;83.00;;;;;;5036401;28;20297;-66
2023/05/04 08:27:29;;;;;;;4.37;3.17;;;15.10;90.00;;;;;;5029635;28;20210;-67
2023/05/04 08:29:56;;;;;;;6.90;3.63;;;15.00;85.60;;;;;;5016852;28;20608;-67
2023/05/04 08:32:22;;;;;;;6.97;3.30;;;14.60;87.40;;;;;;5018338;28;20203;-66
2023/05/04 08:34:47;;;;;;;6.80;3.50;;;14.60;86.70;;;;;;5016576;28;20693;-66
2023/05/04 08:37:13;;;;;;;9.83;3.00;;;14.50;85.50;;;;;;5015668;28;20265;-65
2023/05/04 08:39:38;;;;;;;5.67;3.50;;;14.60;84.40;;;;;;5026612;28;20199;-67
2023/05/04 08:42:04;;;;;;;4.43;2.97;;;14.90;83.20;;;;;;5033667;28;20253;-66
2023/05/04 08:44:30;;;;;;;4.60;2.97;;;15.10;82.70;;;;;;5036474;28;20230;-67
2023/05/04 08:46:55;;;;;;;4.73;2.57;;;15.00;83.30;;;;;;5035620;28;20295;-67
2023/05/04 08:49:23;;;;;;;3.80;1.90;;;15.00;81.80;;;;;;5029408;28;20191;-64
2023/05/04 08:51:49;;;;;;;8.10;2.77;;;15.20;78.30;;;;;;5031649;28;20194;-63
2023/05/04 08:54:15;;;;;;;3.97;3.10;;;15.00;80.10;;;;;;5043219;28;20198;-65
2023/05/04 08:56:41;;;;;;;2.83;2.47;;;14.90;81.10;;;;;;5034514;28;20191;-63
2023/05/04 08:59:10;;;;;;;6.00;2.50;;;15.20;81.50;;;;;;5031564;28;20218;-63
2023/05/04 09:01:37;;;;;;;3.50;2.60;;;15.20;78.20;;;;;;5033025;28;20235;-64
2023/05/04 09:04:03;;;;;;;5.93;2.93;;;15.20;80.10;;;;;;5041341;28;20233;-64
2023/05/04 09:06:30;;;;;;;3.97;2.67;;;15.30;78.90;;;;;;5031140;28;20723;-63
2023/05/04 09:08:56;;;;;;;6.27;3.20;;;15.30;77.20;;;;;;5036124;28;20198;-68
2023/05/04 09:11:22;;;;;;;4.07;2.93;;;15.40;76.30;;;;;;5024833;28;20559;-68
2023/05/04 09:13:47;;;;;;;4.27;2.83;;;15.40;79.90;;;;;;5023433;28;20214;-66
2023/05/04 09:16:15;;;;;;;4.50;2.87;;;15.60;76.30;;;;;;5025275;28;20203;-67
2023/05/04 09:18:42;;;;;;;4.10;2.47;;;15.90;75.10;;;;;;5033437;28;20214;-69
2023/05/04 09:21:08;;;;;;;3.93;2.80;;;16.10;74.10;;;;;;5041790;28;20199;-68
2023/05/04 09:23:45;;;;;;;3.13;2.07;;;15.90;74.20;;;;;;5031374;28;20214;-67
2023/05/04 09:26:10;;;;;;;4.93;2.63;;;15.60;75.30;;;;;;5039525;28;20209;-68
2023/05/04 09:28:40;;;;;;;6.47;2.70;;;16.00;71.40;;;;;;5035613;28;20222;-68
2023/05/04 09:31:07;;;;;;;4.67;2.93;;;16.20;69.50;;;;;;5040491;28;20870;-68
2023/05/04 09:33:33;;;;;;;5.23;3.00;;;16.30;69.40;;;;;;5042821;28;20238;-68
2023/05/04 09:36:20;;;;;;;7.17;2.90;;;16.30;70.30;;;;;;5042837;28;20287;-68
2023/05/04 09:38:46;;;;;;;4.83;3.00;;;16.40;70.80;;;;;;5040804;28;20470;-68
2023/05/04 09:41:12;;;;;;;3.43;2.43;;;16.40;69.10;;;;;;5034855;28;20677;-65
2023/05/04 09:43:42;;;;;;;6.77;2.73;;;16.30;71.90;;;;;;5042385;28;20412;-64
2023/05/04 09:46:18;;;;;;;6.10;2.53;;;16.50;70.30;;;;;;5024130;28;20241;-63
2023/05/04 09:48:54;;;;;;;3.67;2.73;;;16.60;72.00;;;;;;5025569;28;20294;-64
2023/05/04 09:51:22;;;;;;;6.13;3.40;;;16.70;68.70;;;;;;5023673;28;20199;-64
2023/05/04 09:53:49;;;;;;;3.73;2.37;;;16.90;67.10;;;;;;5027570;28;20207;-67
2023/05/04 09:56:42;;;;;;;4.10;2.20;;;16.90;66.90;;;;;;5026505;28;20208;-67
2023/05/04 09:59:09;;;;;;;4.80;2.50;;;17.00;64.90;;;;;;5032646;28;20641;-65
2023/05/04 10:01:35;;;;;;;6.23;3.23;;;17.00;65.80;;;;;;5032718;28;20696;-66
2023/05/04 10:04:01;;;;;;;2.80;2.50;;;17.10;64.90;;;;;;5028517;28;20198;-66
2023/05/04 10:06:29;;;;;;;5.10;2.70;;;17.00;67.20;;;;;;5029740;28;20203;-67
2023/05/04 10:08:55;;;;;;;3.60;2.33;;;16.90;67.70;;;;;;5027146;28;20211;-68
2023/05/04 10:11:24;;;;;;;3.87;2.07;;;17.10;65.30;;;;;;5028145;28;20207;-66
2023/05/04 10:13:50;;;;;;;6.33;2.60;;;17.10;66.60;;;;;;5019347;28;20745;-68
2023/05/04 10:16:50;;;;;;;5.37;2.53;;;17.10;69.30;;;;;;5019138;28;20239;-65
2023/05/04 10:19:42;;;;;;;7.70;2.90;;;17.40;67.70;;;;;;5017841;28;20220;-67
2023/05/04 10:22:27;;;;;;;6.57;3.17;;;17.30;67.30;;;;;;5023940;28;20241;-65
2023/05/04 10:25:09;;;;;;;5.67;3.37;;;17.70;63.90;;;;;;5025675;28;20668;-65
2023/05/04 10:27:53;;;;;;;10.40;6.13;;;17.70;60.90;;;;;;5026937;28;20210;-66
2023/05/04 10:30:19;;;;;;;4.50;3.07;;;17.70;62.80;;;;;;5022568;28;20270;-66
2023/05/04 10:32:45;;;;;;;9.30;4.93;;;17.20;63.00;;;;;;5028139;28;20239;-65
2023/05/04 10:35:10;;;;;;;4.80;3.50;;;17.40;62.70;;;;;;5028274;28;20204;-65
2023/05/04 10:37:36;;;;;;;6.70;3.00;;;17.70;61.10;;;;;;5024375;28;20770;-68
2023/05/04 10:40:06;;;;;;;7.20;3.07;;;17.70;60.00;;;;;;5027711;28;20610;-70
2023/05/04 10:42:42;;;;;;;23.33;11.43;;;17.30;60.50;;;;;;5023983;28;20679;-71
2023/05/04 10:45:09;;;;;;;4.07;3.03;;;17.40;63.30;;;;;;5028691;28;20211;-70
2023/05/04 10:47:36;;;;;;;6.70;3.53;;;17.90;66.00;;;;;;5033595;28;20729;-71
2023/05/04 10:50:13;;;;;;;3.43;2.70;;;18.10;60.70;;;;;;5031223;28;20241;-70
2023/05/04 10:52:52;;;;;;;424.97;117.80;;;18.00;61.80;;;;;;5028022;28;20285;-69
2023/05/04 10:55:19;;;;;;;100.63;30.60;;;18.40;66.00;;;;;;5034542;28;20218;-69
2023/05/04 10:57:53;;;;;;;8.33;4.83;;;18.30;61.50;;;;;;5021536;28;20306;-69
2023/05/04 11:00:19;;;;;;;8.23;4.50;;;18.70;58.00;;;;;;5019987;28;20763;-73
2023/05/04 11:02:48;;;;;;;5.73;2.60;;;18.50;59.40;;;;;;5020384;28;20209;-70
2023/05/04 11:05:18;;;;;;;6.83;2.97;;;18.70;56.50;;;;;;5019554;28;20204;-67
2023/05/04 11:07:45;;;;;;;7.13;2.87;;;18.60;58.10;;;;;;5034457;28;20216;-70
2023/05/04 11:10:25;;;;;;;4.67;3.03;;;18.30;59.90;;;;;;5038039;28;20297;-73
2023/05/04 11:13:00;;;;;;;6.53;3.70;;;18.10;59.00;;;;;;5027153;28;20252;-69
2023/05/04 11:15:29;;;;;;;5.43;2.97;;;18.30;59.10;;;;;;5019400;28;20219;-69
2023/05/04 11:17:55;;;;;;;2.57;2.20;;;18.60;60.30;;;;;;5016151;28;20331;-71
2023/05/04 11:20:26;;;;;;;5.93;2.50;;;18.40;57.00;;;;;;5033386;28;20317;-70
2023/05/04 11:22:53;;;;;;;5.57;3.13;;;18.90;57.20;;;;;;5035403;28;20251;-73
2023/05/04 11:25:29;;;;;;;4.50;3.03;;;19.20;55.00;;;;;;5022798;28;20334;-68
2023/05/04 11:27:58;;;;;;;4.50;3.83;;;19.10;55.60;;;;;;5019423;28;20239;-81
2023/05/04 11:30:32;;;;;;;5.00;2.97;;;18.50;56.20;;;;;;5037576;28;20200;-77
2023/05/04 11:32:59;;;;;;;3.30;2.60;;;19.10;55.70;;;;;;5037336;28;20232;-72
2023/05/04 11:35:25;;;;;;;4.10;2.03;;;19.40;53.30;;;;;;5023765;28;20260;-69
2023/05/04 11:37:51;;;;;;;5.07;2.07;;;19.70;50.20;;;;;;5024442;28;20251;-68
2023/05/04 11:40:20;;;;;;;5.60;2.83;;;19.70;49.70;;;;;;5037110;28;20239;-71
2023/05/04 11:42:48;;;;;;;4.40;2.60;;;20.20;47.70;;;;;;5035892;28;20248;-68
2023/05/04 11:45:22;;;;;;;2.70;1.97;;;19.30;47.90;;;;;;5016592;28;20672;-67
2023/05/04 11:47:48;;;;;;;2.63;2.40;;;19.30;47.40;;;;;;5015734;28;20208;-67
2023/05/04 11:50:15;;;;;;;3.93;2.57;;;19.90;49.00;;;;;;5020318;28;20297;-66
2023/05/04 11:52:42;;;;;;;2.97;2.17;;;20.00;45.80;;;;;;5022056;28;20897;-68
2023/05/04 11:55:09;;;;;;;6.90;2.50;;;19.60;46.90;;;;;;5023362;28;20615;-68
2023/05/04 11:57:36;;;;;;;5.27;2.67;;;19.70;49.10;;;;;;5021903;28;20584;-70
2023/05/04 12:00:04;;;;;;;5.40;2.70;;;19.50;49.60;;;;;;5022968;28;21376;-67
2023/05/04 12:02:30;;;;;;;9.90;3.43;;;19.90;51.30;;;;;;5019646;28;20198;-70
2023/05/04 12:04:55;;;;;;;5.27;2.80;;;20.70;48.00;;;;;;5020641;28;20206;-70
2023/05/04 12:07:21;;;;;;;4.53;2.60;;;20.80;46.60;;;;;;5020052;28;20218;-68
2023/05/04 12:09:56;;;;;;;7.07;2.63;;;20.70;46.60;;;;;;5020803;28;20668;-69
2023/05/04 12:12:21;;;;;;;6.40;2.90;;;20.10;48.70;;;;;;5032342;28;20215;-71
2023/05/04 12:14:49;;;;;;;5.87;2.73;;;20.20;47.60;;;;;;5025291;28;20205;-71
2023/05/04 12:17:14;;;;;;;5.60;2.60;;;20.60;45.60;;;;;;5036618;28;21215;-71
2023/05/04 12:19:51;;;;;;;4.97;2.20;;;20.70;46.50;;;;;;5036691;28;20411;-71
2023/05/04 12:22:25;;;;;;;4.13;2.40;;;20.70;44.10;;;;;;5034387;28;20198;-68
2023/05/04 12:24:51;;;;;;;5.37;2.07;;;20.80;46.60;;;;;;5036700;28;20210;-71
2023/05/04 12:27:17;;;;;;;3.13;2.60;;;20.60;45.50;;;;;;5023661;28;20225;-71
2023/05/04 12:29:42;;;;;;;4.47;2.20;;;20.40;47.40;;;;;;5029075;28;20707;-73
2023/05/04 12:32:08;;;;;;;5.10;3.23;;;21.00;45.10;;;;;;5035322;28;20195;-70
2023/05/04 12:34:33;;;;;;;5.27;2.60;;;20.60;44.70;;;;;;5036427;28;20569;-69
2023/05/04 12:36:59;;;;;;;4.93;2.60;;;20.50;46.00;;;;;;5034077;28;20197;-69
2023/05/04 12:39:24;;;;;;;6.37;2.23;;;20.90;46.60;;;;;;5036218;28;20219;-68
2023/05/04 12:41:49;;;;;;;6.47;2.30;;;21.10;46.80;;;;;;5024440;28;20210;-72
2023/05/04 12:44:15;;;;;;;3.67;1.90;;;21.40;44.00;;;;;;5025193;28;20205;-70
2023/05/04 12:46:42;;;;;;;3.17;2.50;;;21.20;45.70;;;;;;5034844;28;20203;-69
2023/05/04 12:49:09;;;;;;;3.50;2.03;;;21.00;44.80;;;;;;5022038;28;20664;-71